Time;durP1;ratioP1;P1;durP2;ratioP2;P2;SDS_P1;SDS_P2;PMS_P1;PMS_P2;Temp;Humidity;BMP_temperature;BMP_pressure;BME280_temperature;BME280_humidity;BME280_pressure;Samples;Min_cycle;Max_cycle;Signal;HPM_P1;HPM_P2
2023/12/26 00:00:55;;;;;;;7.80;4.82;;;;;;;;;;5088397;28;20027;-84
2023/12/26 00:03:22;;;;;;;7.07;4.70;;;;;;;;;;5110435;28;20012;-86
2023/12/26 00:05:47;;;;;;;6.20;4.60;;;;;;;;;;5113147;27;20492;-86
2023/12/26 00:08:12;;;;;;;7.05;4.53;;;;;;;;;;5113689;28;20032;-86
2023/12/26 00:10:40;;;;;;;7.28;4.97;;;;;;;;;;5093887;28;20012;-86
2023/12/26 00:13:05;;;;;;;7.63;4.65;;;;;;;;;;5093302;28;20415;-87
2023/12/26 00:15:31;;;;;;;5.90;4.57;;;;;;;;;;5110628;28;20024;-86
2023/12/26 00:17:56;;;;;;;7.90;4.88;;;;;;;;;;5114000;28;20410;-86
2023/12/26 00:20:21;;;;;;;5.70;4.40;;;;;;;;;;5109476;28;20022;-87
2023/12/26 00:22:46;;;;;;;7.03;4.57;;;;;;;;;;5113999;28;20107;-86
2023/12/26 00:25:12;;;;;;;5.75;4.22;;;;;;;;;;5100136;28;20012;-87
2023/12/26 00:27:39;;;;;;;6.85;4.60;;;;;;;;;;5113483;28;20022;-86
2023/12/26 00:30:05;;;;;;;6.55;4.68;;;;;;;;;;5095207;28;20023;-87
2023/12/26 00:32:37;;;;;;;6.97;4.72;;;;;;;;;;5095456;28;20612;-84
2023/12/26 00:35:02;;;;;;;6.85;4.45;;;;;;;;;;5113880;28;20035;-86
2023/12/26 00:37:29;;;;;;;6.75;4.28;;;;;;;;;;5108970;28;20379;-87
2023/12/26 00:39:54;;;;;;;7.53;4.70;;;;;;;;;;5093886;28;20040;-87
2023/12/26 00:42:19;;;;;;;6.70;4.63;;;;;;;;;;5114534;27;20043;-86
2023/12/26 00:44:45;;;;;;;5.60;4.13;;;;;;;;;;5114506;28;20106;-86
2023/12/26 00:47:10;;;;;;;6.18;4.50;;;;;;;;;;5108774;28;20089;-86
2023/12/26 00:49:36;;;;;;;7.15;4.30;;;;;;;;;;5108496;28;20047;-86
2023/12/26 00:52:01;;;;;;;6.57;4.63;;;;;;;;;;5085246;28;20035;-86
2023/12/26 00:54:27;;;;;;;6.40;4.55;;;;;;;;;;5089400;28;20043;-85
2023/12/26 00:56:53;;;;;;;5.85;4.30;;;;;;;;;;5112145;28;20039;-84
2023/12/26 00:59:18;;;;;;;6.72;4.50;;;;;;;;;;5093445;28;20455;-85
2023/12/26 01:01:43;;;;;;;7.25;4.45;;;;;;;;;;5112396;28;20543;-83
2023/12/26 01:04:09;;;;;;;6.63;4.53;;;;;;;;;;5093492;28;20035;-84
2023/12/26 01:06:34;;;;;;;6.05;4.20;;;;;;;;;;5103636;28;20024;-84
2023/12/26 01:09:00;;;;;;;6.40;4.32;;;;;;;;;;5094100;28;20035;-83
2023/12/26 01:11:26;;;;;;;6.70;4.57;;;;;;;;;;5109718;28;20038;-85
2023/12/26 01:13:51;;;;;;;7.57;4.88;;;;;;;;;;5092907;28;20100;-84
2023/12/26 01:16:16;;;;;;;7.15;4.35;;;;;;;;;;5110963;28;20104;-84
2023/12/26 01:18:42;;;;;;;6.40;4.45;;;;;;;;;;5111047;28;20084;-83
2023/12/26 01:21:08;;;;;;;6.00;4.00;;;;;;;;;;5110489;28;20088;-85
2023/12/26 01:23:34;;;;;;;6.28;4.22;;;;;;;;;;5092847;28;20051;-85
2023/12/26 01:25:59;;;;;;;6.20;4.53;;;;;;;;;;5088816;28;20047;-85
2023/12/26 01:28:24;;;;;;;7.22;4.45;;;;;;;;;;5110436;28;20032;-87
2023/12/26 01:30:50;;;;;;;7.10;4.75;;;;;;;;;;5092139;28;20565;-86
2023/12/26 01:33:15;;;;;;;6.00;4.65;;;;;;;;;;5106687;28;20590;-87
2023/12/26 01:35:41;;;;;;;6.55;4.43;;;;;;;;;;5107635;28;20027;-86
2023/12/26 01:38:06;;;;;;;6.32;4.38;;;;;;;;;;5114808;28;20031;-85
2023/12/26 01:40:31;;;;;;;6.43;4.40;;;;;;;;;;5115152;28;20414;-85
2023/12/26 01:42:57;;;;;;;6.78;4.80;;;;;;;;;;5097524;28;20032;-86
2023/12/26 01:45:22;;;;;;;7.43;4.72;;;;;;;;;;5111808;28;20388;-86
2023/12/26 01:47:48;;;;;;;5.72;4.40;;;;;;;;;;5113741;28;20104;-84
2023/12/26 01:50:14;;;;;;;5.82;4.10;;;;;;;;;;5113429;28;20046;-84
2023/12/26 01:52:39;;;;;;;6.05;4.10;;;;;;;;;;5095404;28;20032;-83
2023/12/26 01:55:05;;;;;;;6.68;4.20;;;;;;;;;;5110333;28;20155;-86
2023/12/26 01:57:32;;;;;;;6.22;4.60;;;;;;;;;;5096652;28;20104;-85
2023/12/26 01:59:57;;;;;;;7.50;4.82;;;;;;;;;;5114447;28;20430;-84
2023/12/26 02:02:23;;;;;;;5.93;4.35;;;;;;;;;;5095796;28;20077;-85
2023/12/26 02:04:48;;;;;;;6.10;4.45;;;;;;;;;;5082734;28;20098;-85
2023/12/26 02:07:13;;;;;;;7.07;4.82;;;;;;;;;;5097949;28;20032;-85
2023/12/26 02:09:39;;;;;;;6.65;4.45;;;;;;;;;;5114266;28;20046;-86
2023/12/26 02:12:05;;;;;;;5.90;4.32;;;;;;;;;;5115579;28;20040;-86
2023/12/26 02:14:31;;;;;;;5.68;4.22;;;;;;;;;;5115070;28;20036;-84
2023/12/26 02:16:57;;;;;;;7.78;4.90;;;;;;;;;;5113802;28;20520;-84
2023/12/26 02:19:24;;;;;;;6.15;4.50;;;;;;;;;;5097626;28;20024;-84
2023/12/26 02:21:49;;;;;;;6.43;4.65;;;;;;;;;;5109544;28;20101;-86
2023/12/26 02:24:14;;;;;;;6.22;4.30;;;;;;;;;;5094755;28;20047;-86
2023/12/26 02:26:40;;;;;;;6.40;4.45;;;;;;;;;;5092387;28;20047;-86
2023/12/26 02:29:06;;;;;;;6.60;4.53;;;;;;;;;;5096915;28;20123;-86
2023/12/26 02:31:32;;;;;;;6.18;4.43;;;;;;;;;;5096737;28;20027;-86
2023/12/26 02:33:57;;;;;;;5.53;4.30;;;;;;;;;;5079005;28;20066;-85
2023/12/26 02:36:22;;;;;;;6.03;4.63;;;;;;;;;;5115564;28;20034;-86
2023/12/26 02:38:48;;;;;;;6.68;4.40;;;;;;;;;;5097418;28;20140;-86
2023/12/26 02:41:13;;;;;;;5.88;4.05;;;;;;;;;;5095983;28;20375;-86
2023/12/26 02:43:39;;;;;;;6.60;4.55;;;;;;;;;;5114220;28;20036;-86
2023/12/26 02:46:05;;;;;;;6.15;4.57;;;;;;;;;;5107530;28;20511;-84
2023/12/26 02:48:30;;;;;;;5.60;4.15;;;;;;;;;;5117181;28;20038;-85
2023/12/26 02:50:55;;;;;;;6.13;4.03;;;;;;;;;;5117235;28;20027;-86
2023/12/26 02:53:21;;;;;;;5.72;3.80;;;;;;;;;;5117691;28;20050;-84
2023/12/26 02:55:50;;;;;;;5.57;4.00;;;;;;;;;;5117807;28;20483;-84
2023/12/26 02:58:15;;;;;;;7.03;4.30;;;;;;;;;;5115460;28;20024;-85
2023/12/26 03:00:40;;;;;;;5.80;4.22;;;;;;;;;;5101422;28;20031;-84
2023/12/26 03:03:06;;;;;;;6.38;4.15;;;;;;;;;;5116151;28;20149;-85
2023/12/26 03:05:32;;;;;;;5.90;4.00;;;;;;;;;;5115375;28;20069;-84
2023/12/26 03:07:57;;;;;;;6.22;4.15;;;;;;;;;;5098050;28;20063;-84
2023/12/26 03:10:22;;;;;;;7.25;4.50;;;;;;;;;;5113349;28;20035;-83
2023/12/26 03:12:49;;;;;;;5.95;4.22;;;;;;;;;;5113041;28;20138;-84
2023/12/26 03:15:15;;;;;;;6.40;4.57;;;;;;;;;;5112660;28;20038;-83
2023/12/26 03:17:41;;;;;;;6.80;4.13;;;;;;;;;;5107802;28;20031;-85
2023/12/26 03:20:06;;;;;;;5.85;4.25;;;;;;;;;;5097037;28;20142;-86
2023/12/26 03:22:32;;;;;;;6.15;4.60;;;;;;;;;;5110736;28;20116;-85
2023/12/26 03:24:57;;;;;;;6.38;4.50;;;;;;;;;;5091843;28;20028;-85
2023/12/26 03:27:23;;;;;;;6.03;4.05;;;;;;;;;;5112710;28;20034;-86
2023/12/26 03:29:48;;;;;;;6.00;4.20;;;;;;;;;;5094685;28;20040;-86
2023/12/26 03:32:13;;;;;;;6.35;4.47;;;;;;;;;;5113090;28;20484;-87
2023/12/26 03:34:39;;;;;;;6.03;4.28;;;;;;;;;;5094602;28;20039;-86
2023/12/26 03:37:04;;;;;;;5.60;3.83;;;;;;;;;;5094241;28;20050;-85
2023/12/26 03:39:30;;;;;;;6.35;4.25;;;;;;;;;;5094189;28;20145;-85
2023/12/26 03:41:56;;;;;;;6.88;4.10;;;;;;;;;;5111965;28;20051;-85
2023/12/26 03:44:21;;;;;;;5.65;4.22;;;;;;;;;;5112125;28;20043;-86
2023/12/26 03:49:32;;;;;;;5.93;4.00;;;;;;;;;;5110365;28;20043;-85
2023/12/26 03:51:57;;;;;;;5.18;4.00;;;;;;;;;;5113573;28;20044;-86
2023/12/26 03:54:22;;;;;;;6.43;4.10;;;;;;;;;;5093396;28;20177;-85
2023/12/26 03:56:48;;;;;;;5.40;4.10;;;;;;;;;;5111936;28;20243;-86
2023/12/26 03:59:13;;;;;;;5.95;4.10;;;;;;;;;;5093261;28;20036;-84
2023/12/26 04:01:38;;;;;;;5.70;4.10;;;;;;;;;;5092838;28;20031;-85
2023/12/26 04:04:04;;;;;;;5.93;4.10;;;;;;;;;;5082841;28;20098;-86
2023/12/26 04:06:29;;;;;;;5.68;4.03;;;;;;;;;;5109804;28;20421;-82
2023/12/26 04:08:55;;;;;;;6.00;4.30;;;;;;;;;;5112403;28;20075;-85
2023/12/26 04:11:20;;;;;;;5.20;3.88;;;;;;;;;;5111776;28;20518;-83
2023/12/26 04:13:45;;;;;;;5.03;3.63;;;;;;;;;;5073514;28;20038;-85
2023/12/26 04:16:11;;;;;;;5.13;3.75;;;;;;;;;;5107650;28;20043;-83
2023/12/26 04:18:36;;;;;;;7.30;4.20;;;;;;;;;;5079081;28;20047;-82
2023/12/26 04:21:01;;;;;;;5.65;3.50;;;;;;;;;;5108024;28;20482;-84
2023/12/26 04:23:27;;;;;;;6.40;4.10;;;;;;;;;;5091114;28;20418;-82
2023/12/26 04:25:52;;;;;;;5.15;3.60;;;;;;;;;;5108426;28;20055;-83
2023/12/26 04:28:18;;;;;;;6.20;4.30;;;;;;;;;;5095299;28;20023;-81
2023/12/26 04:30:49;;;;;;;5.78;3.97;;;;;;;;;;5114806;28;20048;-84
2023/12/26 04:33:19;;;;;;;5.65;4.03;;;;;;;;;;5086149;28;20032;-83
2023/12/26 04:35:45;;;;;;;5.93;3.83;;;;;;;;;;5111922;28;20036;-84
2023/12/26 04:38:12;;;;;;;6.00;4.05;;;;;;;;;;5108001;28;20028;-83
2023/12/26 04:40:37;;;;;;;5.10;3.53;;;;;;;;;;5113063;28;20040;-83
2023/12/26 04:43:05;;;;;;;5.78;4.05;;;;;;;;;;5067187;28;20240;-83
2023/12/26 04:45:30;;;;;;;5.88;3.80;;;;;;;;;;5073171;28;20121;-84
2023/12/26 04:47:56;;;;;;;5.68;4.03;;;;;;;;;;5091143;28;20487;-83
2023/12/26 04:50:21;;;;;;;6.47;3.70;;;;;;;;;;5079787;28;20040;-83
2023/12/26 04:52:49;;;;;;;6.18;4.35;;;;;;;;;;5114938;28;20523;-85
2023/12/26 04:55:14;;;;;;;5.32;3.72;;;;;;;;;;5111206;28;20027;-83
2023/12/26 04:57:40;;;;;;;5.53;3.85;;;;;;;;;;5112554;28;20039;-83
2023/12/26 05:00:05;;;;;;;5.70;3.97;;;;;;;;;;5112362;28;20047;-85
2023/12/26 05:02:30;;;;;;;5.05;3.67;;;;;;;;;;5102922;28;20024;-83
2023/12/26 05:04:56;;;;;;;5.95;4.00;;;;;;;;;;5091057;28;20077;-84
2023/12/26 05:07:21;;;;;;;4.90;3.60;;;;;;;;;;5110603;28;20035;-85
2023/12/26 05:09:46;;;;;;;4.25;3.58;;;;;;;;;;5108233;28;20052;-82
2023/12/26 05:12:12;;;;;;;5.15;3.85;;;;;;;;;;5107295;28;20719;-84
2023/12/26 05:14:38;;;;;;;6.57;4.07;;;;;;;;;;5106885;28;20032;-84
2023/12/26 05:17:03;;;;;;;7.00;4.10;;;;;;;;;;5092131;28;20039;-84
2023/12/26 05:19:28;;;;;;;6.05;4.03;;;;;;;;;;5111310;28;20028;-83
2023/12/26 05:21:54;;;;;;;6.22;3.75;;;;;;;;;;5112752;28;20023;-84
2023/12/26 05:24:19;;;;;;;5.10;3.70;;;;;;;;;;5110288;28;20421;-85
2023/12/26 05:26:50;;;;;;;4.85;3.42;;;;;;;;;;5111659;28;20035;-84
2023/12/26 05:29:16;;;;;;;6.07;4.10;;;;;;;;;;5109899;28;20126;-84
2023/12/26 05:31:41;;;;;;;5.90;3.75;;;;;;;;;;5091309;28;20047;-84
2023/12/26 05:34:07;;;;;;;5.93;3.78;;;;;;;;;;5110758;28;20038;-85
2023/12/26 05:36:33;;;;;;;5.55;3.70;;;;;;;;;;5111354;28;20399;-87
2023/12/26 05:38:58;;;;;;;5.53;3.88;;;;;;;;;;5092369;28;20128;-87
2023/12/26 05:41:25;;;;;;;5.07;3.85;;;;;;;;;;5093263;28;20061;-83
2023/12/26 05:43:50;;;;;;;5.70;4.10;;;;;;;;;;5106536;28;20054;-81
2023/12/26 05:46:17;;;;;;;5.50;3.75;;;;;;;;;;5088170;28;20502;-81
2023/12/26 05:48:43;;;;;;;6.07;3.92;;;;;;;;;;5073905;28;20059;-83
2023/12/26 05:51:09;;;;;;;5.45;3.47;;;;;;;;;;5110436;28;20618;-85
2023/12/26 05:53:34;;;;;;;6.13;4.22;;;;;;;;;;5093148;28;20031;-83
2023/12/26 05:55:59;;;;;;;5.53;3.75;;;;;;;;;;5086782;28;20078;-78
2023/12/26 05:58:25;;;;;;;6.03;4.38;;;;;;;;;;5093538;28;20109;-83
2023/12/26 06:00:50;;;;;;;6.00;3.88;;;;;;;;;;5105641;28;20506;-80
2023/12/26 06:03:18;;;;;;;5.70;3.60;;;;;;;;;;5083160;28;20036;-81
2023/12/26 06:05:45;;;;;;;5.75;3.70;;;;;;;;;;5100359;28;20092;-79
2023/12/26 06:08:11;;;;;;;4.85;3.60;;;;;;;;;;5093807;28;20054;-81
2023/12/26 06:10:42;;;;;;;6.90;3.35;;;;;;;;;;5066457;28;20056;-80
2023/12/26 06:13:07;;;;;;;6.60;3.92;;;;;;;;;;5079131;28;20153;-80
2023/12/26 06:15:33;;;;;;;5.88;3.47;;;;;;;;;;5097512;28;20069;-79
2023/12/26 06:17:59;;;;;;;5.30;3.70;;;;;;;;;;5096226;28;20104;-79
2023/12/26 06:20:26;;;;;;;5.80;3.50;;;;;;;;;;5081324;28;20042;-80
2023/12/26 06:22:52;;;;;;;5.07;3.53;;;;;;;;;;5083527;28;20020;-82
2023/12/26 06:25:17;;;;;;;7.13;3.85;;;;;;;;;;5098051;28;20134;-82
2023/12/26 06:27:42;;;;;;;5.18;3.63;;;;;;;;;;5079593;28;20125;-79
2023/12/26 06:30:10;;;;;;;6.22;4.28;;;;;;;;;;5085837;28;20050;-77
2023/12/26 06:32:35;;;;;;;5.80;3.70;;;;;;;;;;5081535;28;20069;-78
2023/12/26 06:35:01;;;;;;;6.30;3.63;;;;;;;;;;5084378;28;20035;-84
2023/12/26 06:37:26;;;;;;;6.18;4.00;;;;;;;;;;5099227;28;20168;-82
2023/12/26 06:39:51;;;;;;;5.13;3.65;;;;;;;;;;5086811;28;20023;-78
2023/12/26 06:42:17;;;;;;;6.25;3.95;;;;;;;;;;5100382;28;20465;-78
2023/12/26 06:44:42;;;;;;;6.05;3.80;;;;;;;;;;5082733;28;20028;-79
2023/12/26 06:47:08;;;;;;;5.82;3.65;;;;;;;;;;5101937;28;20035;-78
2023/12/26 06:49:33;;;;;;;6.13;3.25;;;;;;;;;;5107791;28;20039;-78
2023/12/26 06:51:59;;;;;;;7.18;3.45;;;;;;;;;;5095933;28;20723;-77
2023/12/26 06:54:25;;;;;;;5.35;3.47;;;;;;;;;;5098074;28;20411;-75
2023/12/26 06:56:51;;;;;;;7.82;4.18;;;;;;;;;;5099764;28;20039;-82
2023/12/26 06:59:16;;;;;;;6.35;3.53;;;;;;;;;;5081816;28;20034;-76
2023/12/26 07:01:45;;;;;;;5.72;3.67;;;;;;;;;;5081743;28;20036;-77
2023/12/26 07:04:12;;;;;;;4.95;3.53;;;;;;;;;;5082952;28;20100;-78
2023/12/26 07:06:37;;;;;;;5.68;3.65;;;;;;;;;;5085294;28;20559;-82
2023/12/26 07:09:03;;;;;;;5.93;4.10;;;;;;;;;;5102139;28;20040;-80
2023/12/26 07:11:28;;;;;;;4.88;3.40;;;;;;;;;;5071499;28;20039;-80
2023/12/26 07:13:53;;;;;;;5.70;3.75;;;;;;;;;;5079753;28;20499;-78
2023/12/26 07:16:19;;;;;;;5.20;3.40;;;;;;;;;;5072229;28;20042;-79
2023/12/26 07:18:45;;;;;;;8.75;3.97;;;;;;;;;;5088506;28;20114;-77
2023/12/26 07:21:10;;;;;;;5.32;3.47;;;;;;;;;;5086044;28;20056;-78
2023/12/26 07:23:36;;;;;;;4.93;3.85;;;;;;;;;;5085567;28;20119;-81
2023/12/26 07:26:01;;;;;;;6.85;3.67;;;;;;;;;;5101786;28;20035;-81
2023/12/26 07:28:26;;;;;;;5.38;3.63;;;;;;;;;;5101639;28;20065;-78
2023/12/26 07:30:52;;;;;;;6.85;3.70;;;;;;;;;;5085595;28;20056;-78
2023/12/26 07:33:17;;;;;;;5.80;3.67;;;;;;;;;;5098347;28;20070;-79
2023/12/26 07:35:42;;;;;;;5.10;3.55;;;;;;;;;;5101598;28;20048;-79
2023/12/26 07:38:08;;;;;;;6.30;3.58;;;;;;;;;;5097852;28;20634;-82
2023/12/26 07:40:33;;;;;;;6.70;3.33;;;;;;;;;;5078915;28;20042;-77
2023/12/26 07:42:58;;;;;;;9.30;3.92;;;;;;;;;;5082211;28;20020;-79
2023/12/26 07:45:25;;;;;;;5.25;3.45;;;;;;;;;;5098761;28;20517;-80
2023/12/26 07:47:50;;;;;;;6.00;3.67;;;;;;;;;;5081898;28;20090;-78
2023/12/26 07:50:16;;;;;;;6.68;3.65;;;;;;;;;;5096096;28;20528;-76
2023/12/26 07:52:42;;;;;;;5.47;3.67;;;;;;;;;;5101459;28;20486;-88
2023/12/26 07:55:07;;;;;;;7.03;3.63;;;;;;;;;;5068107;28;20115;-80
2023/12/26 07:57:32;;;;;;;6.22;3.58;;;;;;;;;;5090024;28;20423;-81
2023/12/26 07:59:59;;;;;;;6.82;3.75;;;;;;;;;;5096067;28;20036;-93
2023/12/26 08:02:25;;;;;;;5.95;3.72;;;;;;;;;;5103219;28;20511;-80
2023/12/26 08:04:50;;;;;;;5.38;3.70;;;;;;;;;;5074721;28;20039;-82
2023/12/26 08:07:16;;;;;;;7.30;4.03;;;;;;;;;;5099581;28;20677;-80
2023/12/26 08:09:41;;;;;;;9.07;3.85;;;;;;;;;;5084445;28;20093;-75
2023/12/26 08:12:06;;;;;;;7.20;4.30;;;;;;;;;;5085645;28;20039;-81
2023/12/26 08:14:32;;;;;;;7.03;3.72;;;;;;;;;;5072608;28;20137;-80
2023/12/26 08:16:57;;;;;;;9.20;3.75;;;;;;;;;;5084582;28;20150;-80
2023/12/26 08:19:23;;;;;;;11.23;4.07;;;;;;;;;;5101497;28;20110;-81
2023/12/26 08:21:48;;;;;;;8.07;4.25;;;;;;;;;;5064801;28;20032;-78
2023/12/26 08:24:13;;;;;;;6.82;3.92;;;;;;;;;;5077881;28;20035;-80
2023/12/26 08:26:39;;;;;;;7.70;4.00;;;;;;;;;;5094253;28;20050;-78
2023/12/26 08:29:04;;;;;;;7.70;4.20;;;;;;;;;;5097774;28;20051;-76
2023/12/26 08:31:29;;;;;;;4.85;3.58;;;;;;;;;;5095894;28;20034;-77
2023/12/26 08:33:55;;;;;;;9.18;4.55;;;;;;;;;;5096235;28;20065;-77
2023/12/26 08:36:21;;;;;;;6.25;3.72;;;;;;;;;;5079143;28;20039;-78
2023/12/26 08:38:48;;;;;;;6.60;3.83;;;;;;;;;;5098989;28;20032;-78
2023/12/26 08:41:13;;;;;;;6.53;3.97;;;;;;;;;;5096494;28;20079;-77
2023/12/26 08:43:39;;;;;;;6.63;4.13;;;;;;;;;;5097257;28;20798;-77
2023/12/26 08:46:04;;;;;;;6.50;4.10;;;;;;;;;;5083592;28;20044;-78
2023/12/26 08:48:30;;;;;;;5.57;4.10;;;;;;;;;;5085220;28;20047;-78
2023/12/26 08:50:55;;;;;;;6.60;4.07;;;;;;;;;;5079250;28;20312;-80
2023/12/26 08:53:20;;;;;;;7.00;3.80;;;;;;;;;;5077824;28;20406;-79
2023/12/26 08:55:46;;;;;;;6.13;4.00;;;;;;;;;;5076026;28;20767;-78
2023/12/26 08:58:12;;;;;;;6.18;4.05;;;;;;;;;;5078171;28;20111;-77
2023/12/26 09:00:37;;;;;;;6.40;4.20;;;;;;;;;;5060026;28;20115;-78
2023/12/26 09:03:03;;;;;;;7.00;4.13;;;;;;;;;;5096762;28;20063;-77
2023/12/26 09:05:28;;;;;;;7.13;4.07;;;;;;;;;;5094924;28;20115;-77
2023/12/26 09:07:53;;;;;;;7.15;4.57;;;;;;;;;;5067613;28;20047;-76
2023/12/26 09:10:19;;;;;;;7.15;4.70;;;;;;;;;;5079804;28;20550;-76
2023/12/26 09:12:44;;;;;;;5.90;4.00;;;;;;;;;;5079103;28;20035;-77
2023/12/26 09:15:09;;;;;;;6.95;4.10;;;;;;;;;;5063668;28;20117;-76
2023/12/26 09:17:36;;;;;;;5.90;3.88;;;;;;;;;;5096561;28;20383;-77
2023/12/26 09:20:02;;;;;;;5.97;4.10;;;;;;;;;;5097598;28;20229;-77
2023/12/26 09:22:27;;;;;;;5.90;4.05;;;;;;;;;;5085334;28;20031;-79
2023/12/26 09:24:53;;;;;;;7.43;4.45;;;;;;;;;;5068514;28;20028;-78
2023/12/26 09:27:18;;;;;;;7.13;4.70;;;;;;;;;;5084192;28;20024;-79
2023/12/26 09:29:43;;;;;;;6.55;4.47;;;;;;;;;;5079433;28;20248;-79
2023/12/26 09:32:09;;;;;;;6.40;4.05;;;;;;;;;;5091227;28;20062;-78
2023/12/26 09:34:34;;;;;;;7.28;4.55;;;;;;;;;;5081564;28;20111;-78
2023/12/26 09:37:19;;;;;;;6.85;4.30;;;;;;;;;;5085395;28;20430;-79
2023/12/26 09:39:44;;;;;;;7.97;4.20;;;;;;;;;;5077491;28;20039;-81
2023/12/26 09:42:11;;;;;;;6.43;4.20;;;;;;;;;;5064206;28;20031;-79
2023/12/26 09:44:36;;;;;;;7.78;4.35;;;;;;;;;;5079766;28;20810;-79
2023/12/26 09:47:02;;;;;;;11.10;6.25;;;;;;;;;;5064053;28;20040;-80
2023/12/26 09:49:28;;;;;;;8.23;4.28;;;;;;;;;;5078767;28;20055;-78
2023/12/26 09:51:53;;;;;;;6.53;4.35;;;;;;;;;;5082090;28;20595;-79
2023/12/26 09:54:18;;;;;;;6.93;4.38;;;;;;;;;;5083558;28;20040;-77
2023/12/26 09:56:45;;;;;;;6.55;4.53;;;;;;;;;;5092868;28;20024;-79
2023/12/26 09:59:10;;;;;;;5.90;4.35;;;;;;;;;;5087197;28;20401;-79
2023/12/26 10:01:35;;;;;;;8.25;4.50;;;;;;;;;;5096717;28;20032;-79
2023/12/26 10:04:03;;;;;;;7.50;4.85;;;;;;;;;;5079668;28;20043;-77
2023/12/26 10:06:28;;;;;;;6.80;4.95;;;;;;;;;;5079441;28;20044;-75
2023/12/26 10:08:53;;;;;;;7.85;4.90;;;;;;;;;;5099006;28;20054;-78
2023/12/26 10:11:20;;;;;;;6.38;4.20;;;;;;;;;;5088785;28;20075;-78
2023/12/26 10:13:50;;;;;;;6.82;4.70;;;;;;;;;;5072887;28;20055;-78
2023/12/26 10:16:15;;;;;;;6.97;4.05;;;;;;;;;;5090699;28;20043;-79
2023/12/26 10:18:40;;;;;;;7.38;5.10;;;;;;;;;;5100814;28;20036;-78
2023/12/26 10:21:06;;;;;;;5.97;4.13;;;;;;;;;;5103386;28;20046;-77
2023/12/26 10:23:31;;;;;;;6.90;4.22;;;;;;;;;;5082457;28;20126;-80
2023/12/26 10:25:56;;;;;;;7.80;5.10;;;;;;;;;;5100081;28;20082;-79
2023/12/26 10:28:22;;;;;;;7.40;5.03;;;;;;;;;;5103468;28;20027;-79
2023/12/26 10:30:47;;;;;;;7.95;4.65;;;;;;;;;;5093515;28;20047;-80
2023/12/26 10:33:12;;;;;;;7.00;4.20;;;;;;;;;;5106902;28;20028;-78
2023/12/26 10:35:38;;;;;;;5.90;4.20;;;;;;;;;;5090119;28;20047;-79
2023/12/26 10:38:04;;;;;;;7.38;4.82;;;;;;;;;;5104944;28;20038;-76
2023/12/26 10:40:29;;;;;;;7.47;4.53;;;;;;;;;;5102316;28;20023;-78
2023/12/26 10:42:54;;;;;;;6.78;4.50;;;;;;;;;;5100687;28;20043;-78
2023/12/26 10:45:20;;;;;;;6.97;4.50;;;;;;;;;;5091634;28;20039;-77
2023/12/26 10:47:47;;;;;;;7.90;5.07;;;;;;;;;;5082217;28;20035;-77
2023/12/26 10:50:12;;;;;;;7.95;4.97;;;;;;;;;;5101298;28;20043;-78
2023/12/26 10:52:41;;;;;;;7.68;4.55;;;;;;;;;;5102707;28;20032;-78
2023/12/26 10:55:07;;;;;;;6.60;4.50;;;;;;;;;;5100703;28;20032;-77
2023/12/26 10:57:32;;;;;;;6.70;4.88;;;;;;;;;;5084396;28;20036;-77
2023/12/26 13:53:53;;;;;;;7.80;4.20;;;;;;;;;;5095065;28;20076;-78
2023/12/26 13:56:38;;;;;;;7.93;4.15;;;;;;;;;;5096803;28;20365;-78
2023/12/26 13:59:22;;;;;;;7.70;4.38;;;;;;;;;;5093053;28;20042;-79
2023/12/26 14:02:06;;;;;;;6.00;3.95;;;;;;;;;;5095721;28;21219;-79
2023/12/26 14:04:50;;;;;;;6.80;3.95;;;;;;;;;;5094715;28;20064;-78
2023/12/26 14:07:35;;;;;;;7.03;4.47;;;;;;;;;;5077618;28;20039;-79
2023/12/26 14:10:19;;;;;;;6.95;3.80;;;;;;;;;;5094390;28;20196;-78
2023/12/26 14:13:03;;;;;;;6.25;4.00;;;;;;;;;;5077566;28;20027;-78
2023/12/26 14:15:47;;;;;;;7.00;3.92;;;;;;;;;;5082213;28;20024;-76
2023/12/26 14:18:31;;;;;;;7.30;4.30;;;;;;;;;;5094788;28;20059;-82
2023/12/26 14:21:15;;;;;;;8.00;4.20;;;;;;;;;;5094883;28;20064;-78
2023/12/26 14:23:59;;;;;;;6.60;4.22;;;;;;;;;;5093953;28;20042;-79
2023/12/26 14:26:44;;;;;;;6.15;4.00;;;;;;;;;;5094330;28;20514;-80
2023/12/26 14:29:28;;;;;;;7.55;4.32;;;;;;;;;;5080601;28;20048;-78
2023/12/26 14:32:12;;;;;;;7.75;4.10;;;;;;;;;;5093581;28;20055;-78
2023/12/26 14:34:56;;;;;;;6.45;4.13;;;;;;;;;;5094842;28;20097;-78
2023/12/26 14:37:40;;;;;;;7.03;4.13;;;;;;;;;;5092191;28;20505;-78
2023/12/26 14:40:24;;;;;;;7.00;4.28;;;;;;;;;;5093892;28;20073;-79
2023/12/26 14:43:09;;;;;;;7.53;4.35;;;;;;;;;;5093570;28;20047;-77
2023/12/26 14:45:53;;;;;;;6.93;4.22;;;;;;;;;;5095262;28;20998;-77
2023/12/26 14:48:38;;;;;;;7.00;4.00;;;;;;;;;;5097032;28;20253;-78
2023/12/26 14:51:22;;;;;;;6.70;4.45;;;;;;;;;;5095986;28;20040;-78
2023/12/26 14:54:06;;;;;;;7.15;4.13;;;;;;;;;;5081235;28;20096;-79
2023/12/26 14:56:50;;;;;;;6.45;3.85;;;;;;;;;;5097520;28;20150;-79
2023/12/26 14:59:34;;;;;;;8.00;4.35;;;;;;;;;;5096265;28;20028;-78
2023/12/26 15:02:01;;;;;;;7.15;4.20;;;;;;;;;;5097032;28;20388;-79
2023/12/26 15:04:27;;;;;;;6.30;3.90;;;;;;;;;;5080908;28;20051;-78
2023/12/26 15:06:55;;;;;;;6.22;4.50;;;;;;;;;;5072743;28;20032;-78
2023/12/26 15:09:20;;;;;;;8.13;4.40;;;;;;;;;;5089320;28;20065;-79
2023/12/26 15:11:46;;;;;;;5.13;3.40;;;;;;;;;;5103020;28;20104;-77
2023/12/26 15:14:12;;;;;;;13.70;4.75;;;;;;;;;;5068425;28;20035;-77
2023/12/26 15:16:37;;;;;;;12.27;4.68;;;;;;;;;;5106092;28;20526;-77
2023/12/26 15:19:02;;;;;;;11.85;4.07;;;;;;;;;;5066965;28;20055;-78
2023/12/26 15:21:28;;;;;;;10.18;3.85;;;;;;;;;;5099041;28;20023;-77
2023/12/26 15:23:53;;;;;;;8.10;3.67;;;;;;;;;;5082581;28;20462;-78
2023/12/26 15:26:21;;;;;;;9.30;4.00;;;;;;;;;;5071149;28;20043;-77
2023/12/26 15:28:47;;;;;;;9.75;4.60;;;;;;;;;;5099825;28;20042;-78
2023/12/26 15:31:13;;;;;;;6.88;3.83;;;;;;;;;;5100501;28;20036;-77
2023/12/26 15:33:39;;;;;;;8.60;4.30;;;;;;;;;;5102464;28;20028;-76
2023/12/26 15:36:05;;;;;;;8.73;3.95;;;;;;;;;;5065374;28;20503;-80
2023/12/26 15:38:31;;;;;;;7.65;4.20;;;;;;;;;;5098246;28;20115;-78
2023/12/26 15:40:57;;;;;;;8.68;4.07;;;;;;;;;;5067023;28;20020;-77
2023/12/26 15:43:25;;;;;;;9.40;4.72;;;;;;;;;;5101845;28;20012;-76
2023/12/26 15:45:53;;;;;;;7.93;3.72;;;;;;;;;;5082616;28;20034;-76
2023/12/26 15:48:18;;;;;;;7.85;3.97;;;;;;;;;;5082133;28;20019;-80
2023/12/26 15:50:44;;;;;;;5.93;3.53;;;;;;;;;;5101736;28;20035;-78
2023/12/26 15:53:09;;;;;;;7.43;3.83;;;;;;;;;;5099215;28;20123;-78
2023/12/26 15:55:34;;;;;;;10.15;4.35;;;;;;;;;;5069701;28;20031;-76
2023/12/26 15:58:00;;;;;;;7.80;4.30;;;;;;;;;;5099140;28;20093;-78
2023/12/26 16:00:25;;;;;;;6.90;3.90;;;;;;;;;;5087526;28;20020;-76
2023/12/26 16:02:51;;;;;;;7.50;3.78;;;;;;;;;;5086765;28;20628;-75
2023/12/26 16:05:16;;;;;;;7.43;4.20;;;;;;;;;;5084010;28;20027;-77
2023/12/26 16:07:41;;;;;;;7.32;3.95;;;;;;;;;;5089428;28;20730;-79
2023/12/26 16:10:07;;;;;;;6.47;4.25;;;;;;;;;;5096461;28;20534;-79
2023/12/26 16:12:33;;;;;;;6.53;4.00;;;;;;;;;;5089788;28;20036;-78
2023/12/26 16:14:58;;;;;;;8.02;4.03;;;;;;;;;;5082366;28;20457;-77
2023/12/26 16:17:25;;;;;;;6.93;3.80;;;;;;;;;;5080377;28;20084;-76
2023/12/26 16:19:50;;;;;;;6.93;4.05;;;;;;;;;;5078871;28;20063;-77
2023/12/26 16:22:15;;;;;;;5.72;3.97;;;;;;;;;;5100220;28;20062;-79
2023/12/26 16:24:42;;;;;;;6.35;3.50;;;;;;;;;;5081045;28;20114;-77
2023/12/26 16:27:07;;;;;;;6.05;3.65;;;;;;;;;;5068043;28;20030;-77
2023/12/26 16:29:32;;;;;;;8.38;4.07;;;;;;;;;;5079768;28;20024;-77
2023/12/26 16:31:58;;;;;;;6.18;4.07;;;;;;;;;;5096554;28;20038;-78
2023/12/26 16:34:24;;;;;;;7.90;3.95;;;;;;;;;;5101116;28;20536;-78
2023/12/26 16:36:50;;;;;;;7.53;4.38;;;;;;;;;;5085051;28;20031;-79
2023/12/26 16:39:15;;;;;;;6.28;4.13;;;;;;;;;;5077816;28;20035;-78
2023/12/26 16:41:42;;;;;;;6.78;4.13;;;;;;;;;;5091198;28;20032;-77
2023/12/26 16:44:10;;;;;;;5.25;3.55;;;;;;;;;;5078043;28;20522;-78
2023/12/26 16:46:37;;;;;;;5.47;3.70;;;;;;;;;;5064775;28;20068;-77
2023/12/26 16:49:02;;;;;;;6.20;3.50;;;;;;;;;;5095338;28;20040;-77
2023/12/26 16:51:28;;;;;;;7.25;3.50;;;;;;;;;;5080222;28;20125;-79
2023/12/26 16:53:53;;;;;;;7.57;3.92;;;;;;;;;;5081325;28;20395;-79
2023/12/26 16:56:18;;;;;;;6.38;3.85;;;;;;;;;;5076276;28;20402;-78
2023/12/26 16:58:44;;;;;;;5.78;3.45;;;;;;;;;;5079831;28;20028;-75
2023/12/26 17:01:09;;;;;;;6.82;3.92;;;;;;;;;;5077972;28;20028;-79
2023/12/26 17:03:40;;;;;;;8.60;4.07;;;;;;;;;;5093699;28;20031;-78
2023/12/26 17:06:05;;;;;;;5.82;3.70;;;;;;;;;;5062692;28;20069;-77
2023/12/26 17:08:31;;;;;;;5.32;3.38;;;;;;;;;;5078759;28;20028;-76
2023/12/26 17:10:56;;;;;;;6.88;4.00;;;;;;;;;;5076791;28;20036;-77
2023/12/26 17:13:22;;;;;;;7.82;4.00;;;;;;;;;;5100484;28;20035;-77
2023/12/26 17:15:47;;;;;;;6.50;3.97;;;;;;;;;;5080343;28;20089;-78
2023/12/26 17:18:12;;;;;;;7.13;3.83;;;;;;;;;;5076558;28;20036;-77
2023/12/26 17:20:38;;;;;;;6.10;3.15;;;;;;;;;;5095776;28;20047;-79
2023/12/26 17:23:03;;;;;;;5.18;3.90;;;;;;;;;;5080236;28;20062;-78
2023/12/26 17:25:29;;;;;;;6.20;4.00;;;;;;;;;;5078211;28;20036;-77
2023/12/26 17:27:54;;;;;;;5.22;3.42;;;;;;;;;;5097318;28;20040;-75
2023/12/26 17:30:20;;;;;;;6.20;4.13;;;;;;;;;;5076627;28;20414;-77
2023/12/26 17:32:47;;;;;;;6.95;3.50;;;;;;;;;;5077855;28;20042;-76
2023/12/26 17:35:12;;;;;;;5.75;3.60;;;;;;;;;;5078296;28;20632;-75
2023/12/26 17:37:38;;;;;;;5.13;3.40;;;;;;;;;;5095643;28;20451;-78